Time;durP1;ratioP1;P1;durP2;ratioP2;P2;SDS_P1;SDS_P2;PMS_P1;PMS_P2;Temp;Humidity;BMP_temperature;BMP_pressure;BME280_temperature;BME280_humidity;BME280_pressure;Samples;Min_cycle;Max_cycle;Signal;HPM_P1;HPM_P2
2023/12/24 00:02:03;;;;;;;0.75;0.40;;;6.90;99.90;;;;;;5065624;28;20032;-68
2023/12/24 00:04:29;;;;;;;2.45;0.60;;;6.90;99.90;;;;;;5077241;28;20029;-69
2023/12/24 00:06:54;;;;;;;1.63;0.60;;;6.90;99.90;;;;;;5070894;28;20082;-68
2023/12/24 00:09:20;;;;;;;2.47;0.65;;;6.90;99.90;;;;;;5071726;28;20059;-70
2023/12/24 00:11:45;;;;;;;3.72;0.60;;;6.90;99.90;;;;;;5075896;28;20027;-69
2023/12/24 00:14:11;;;;;;;1.63;0.38;;;6.90;99.90;;;;;;5087241;28;20032;-68
2023/12/24 00:16:41;;;;;;;1.23;0.50;;;6.80;99.90;;;;;;5070056;28;20406;-71
2023/12/24 00:19:06;;;;;;;1.10;0.50;;;6.90;99.90;;;;;;5070783;28;20043;-73
2023/12/24 00:21:32;;;;;;;1.23;0.50;;;6.90;99.90;;;;;;5082296;28;20111;-71
2023/12/24 00:23:57;;;;;;;0.60;0.40;;;6.80;99.90;;;;;;5070322;28;20025;-71
2023/12/24 00:26:23;;;;;;;4.13;0.50;;;6.90;99.90;;;;;;5075749;28;20028;-76
2023/12/24 00:28:51;;;;;;;1.83;0.50;;;6.90;99.90;;;;;;5089127;28;20498;-70
2023/12/24 00:31:17;;;;;;;1.13;0.35;;;6.90;99.90;;;;;;5083500;28;20117;-72
2023/12/24 00:33:42;;;;;;;0.77;0.30;;;7.00;99.90;;;;;;5060038;28;20060;-71
2023/12/24 00:36:08;;;;;;;1.45;0.40;;;6.90;99.90;;;;;;5070056;28;20487;-71
2023/12/24 00:38:34;;;;;;;0.77;0.30;;;7.00;99.90;;;;;;5085577;28;20066;-71
2023/12/24 00:40:59;;;;;;;1.83;0.40;;;7.00;99.90;;;;;;5051845;28;20056;-72
2023/12/24 00:43:25;;;;;;;0.88;0.28;;;7.00;99.90;;;;;;5075335;28;20024;-75
2023/12/24 00:45:51;;;;;;;0.80;0.30;;;7.10;99.90;;;;;;5070365;28;20039;-71
2023/12/24 00:48:16;;;;;;;0.75;0.20;;;7.00;99.90;;;;;;5077481;28;20042;-72
2023/12/24 00:50:42;;;;;;;1.40;0.50;;;7.10;99.90;;;;;;5072469;28;20047;-72
2023/12/24 00:53:08;;;;;;;0.90;0.20;;;7.10;99.90;;;;;;5066165;28;20475;-72
2023/12/24 00:55:33;;;;;;;2.47;0.40;;;7.10;99.90;;;;;;5063631;28;20028;-71
2023/12/24 00:57:59;;;;;;;2.92;0.30;;;7.10;99.90;;;;;;5069622;28;20075;-71
2023/12/24 01:00:24;;;;;;;0.50;0.20;;;7.20;99.90;;;;;;5069248;28;20437;-73
2023/12/24 01:02:50;;;;;;;1.10;0.38;;;7.20;99.90;;;;;;5067353;28;20035;-68
2023/12/24 01:05:16;;;;;;;1.67;0.30;;;7.20;99.90;;;;;;5077779;28;20052;-68
2023/12/24 01:07:41;;;;;;;0.85;0.47;;;7.10;99.90;;;;;;5070265;28;20032;-69
2023/12/24 01:10:07;;;;;;;1.50;0.25;;;7.10;99.90;;;;;;5089117;28;20036;-69
2023/12/24 01:12:33;;;;;;;0.75;0.30;;;7.20;99.90;;;;;;5080059;28;20059;-68
2023/12/24 01:14:59;;;;;;;1.52;0.30;;;7.20;99.90;;;;;;5077645;28;20034;-67
2023/12/24 01:17:25;;;;;;;1.95;0.38;;;7.20;99.90;;;;;;5070971;28;20051;-73
2023/12/24 01:19:50;;;;;;;0.90;0.30;;;7.30;99.90;;;;;;5088528;28;20062;-69
2023/12/24 01:22:16;;;;;;;0.70;0.30;;;7.20;99.90;;;;;;5070822;28;20413;-69
2023/12/24 01:24:41;;;;;;;0.98;0.20;;;7.20;99.90;;;;;;5083887;28;20031;-69
2023/12/24 01:27:07;;;;;;;0.60;0.30;;;7.20;99.90;;;;;;5073947;28;20032;-69
2023/12/24 01:29:33;;;;;;;1.55;0.40;;;7.20;99.90;;;;;;5078086;28;20028;-68
2023/12/24 01:31:58;;;;;;;0.75;0.20;;;7.20;99.90;;;;;;5086875;28;20111;-68
2023/12/24 01:34:24;;;;;;;2.80;0.30;;;7.30;99.90;;;;;;5065798;28;20105;-68
2023/12/24 01:36:50;;;;;;;1.30;0.30;;;7.30;99.90;;;;;;5068140;28;20032;-69
2023/12/24 01:39:15;;;;;;;0.43;0.30;;;7.30;99.90;;;;;;5080515;28;20131;-70
2023/12/24 01:41:43;;;;;;;0.90;0.25;;;7.30;99.90;;;;;;5061915;28;20028;-68
2023/12/24 01:44:08;;;;;;;2.45;0.38;;;7.30;99.90;;;;;;5072484;28;20052;-67
2023/12/24 01:46:34;;;;;;;0.82;0.30;;;7.20;99.90;;;;;;5088184;28;20060;-68
2023/12/24 01:49:00;;;;;;;1.33;0.30;;;7.30;99.90;;;;;;5077027;28;20549;-69
2023/12/24 01:51:29;;;;;;;0.70;0.20;;;7.30;99.90;;;;;;5070241;28;20047;-69
2023/12/24 01:53:55;;;;;;;0.63;0.20;;;7.30;99.90;;;;;;5086809;28;20036;-68
2023/12/24 01:56:22;;;;;;;0.55;0.30;;;7.30;99.90;;;;;;5071848;28;20028;-69
2023/12/24 01:58:50;;;;;;;0.63;0.30;;;7.40;99.90;;;;;;5068052;28;20628;-69
2023/12/24 02:01:16;;;;;;;0.80;0.30;;;7.40;99.90;;;;;;5069239;28;20052;-70
2023/12/24 02:03:42;;;;;;;0.57;0.20;;;7.40;99.90;;;;;;5078232;28;20095;-69
2023/12/24 02:06:10;;;;;;;0.63;0.30;;;7.40;99.90;;;;;;5075665;28;20024;-70
2023/12/24 02:08:38;;;;;;;4.32;0.50;;;7.40;99.90;;;;;;5087676;28;20138;-68
2023/12/24 02:11:04;;;;;;;1.50;0.40;;;7.40;99.90;;;;;;5084387;28;20028;-68
2023/12/24 02:13:30;;;;;;;0.32;0.20;;;7.40;99.90;;;;;;5081979;28;20032;-71
2023/12/24 02:15:58;;;;;;;1.83;0.40;;;7.40;99.90;;;;;;5072599;28;20486;-70
2023/12/24 02:18:24;;;;;;;0.60;0.20;;;7.40;99.90;;;;;;5064120;28;20123;-68
2023/12/24 02:20:50;;;;;;;0.40;0.30;;;7.40;99.90;;;;;;5083617;28;20111;-68
2023/12/24 02:23:16;;;;;;;0.45;0.30;;;7.40;99.90;;;;;;5080261;28;20090;-69
2023/12/24 02:25:42;;;;;;;0.28;0.10;;;7.40;99.90;;;;;;5084710;28;20550;-70
2023/12/24 02:28:24;;;;;;;0.70;0.30;;;7.40;99.90;;;;;;5068446;28;20046;-68
2023/12/24 02:30:59;;;;;;;1.05;0.28;;;7.50;99.90;;;;;;5056775;28;20663;-68
2023/12/24 02:33:29;;;;;;;0.30;0.15;;;7.40;99.90;;;;;;5070277;28;20029;-68
2023/12/24 02:35:55;;;;;;;3.53;0.22;;;7.40;99.90;;;;;;5074215;28;20024;-67
2023/12/24 02:38:21;;;;;;;0.55;0.20;;;7.40;99.90;;;;;;5068526;28;20048;-69
2023/12/24 02:40:47;;;;;;;0.47;0.25;;;7.50;99.90;;;;;;5072649;28;20020;-68
2023/12/24 02:43:12;;;;;;;1.27;0.20;;;7.40;99.90;;;;;;5070239;28;20056;-69
2023/12/24 02:45:39;;;;;;;0.70;0.38;;;7.40;99.90;;;;;;5067700;28;20071;-68
2023/12/24 02:48:05;;;;;;;0.98;0.30;;;7.40;99.90;;;;;;5086913;28;20086;-70
2023/12/24 02:50:31;;;;;;;1.58;0.40;;;7.40;99.90;;;;;;5059270;28;20557;-74
2023/12/24 02:52:57;;;;;;;0.95;0.40;;;7.40;99.90;;;;;;5065475;28;20035;-72
2023/12/24 02:55:22;;;;;;;0.93;0.35;;;7.40;99.90;;;;;;5079987;28;20035;-70
2023/12/24 02:57:48;;;;;;;0.88;0.30;;;7.40;99.90;;;;;;5068669;28;20033;-70
2023/12/24 03:00:14;;;;;;;0.70;0.32;;;7.50;99.90;;;;;;5074397;28;20053;-70
2023/12/24 03:02:39;;;;;;;2.30;0.35;;;7.40;99.90;;;;;;5090514;28;20478;-68
2023/12/24 03:05:05;;;;;;;1.52;0.40;;;7.40;99.90;;;;;;5091706;28;20035;-69
2023/12/24 03:07:31;;;;;;;1.05;0.47;;;7.40;99.90;;;;;;5089967;28;20078;-72
2023/12/24 03:09:56;;;;;;;0.80;0.30;;;7.40;99.90;;;;;;5084050;28;20091;-69
2023/12/24 03:12:22;;;;;;;0.57;0.20;;;7.50;99.90;;;;;;5071820;28;20490;-68
2023/12/24 03:14:47;;;;;;;0.70;0.30;;;7.50;99.90;;;;;;5054238;28;20107;-69
2023/12/24 03:17:13;;;;;;;0.60;0.30;;;7.50;99.90;;;;;;5081887;28;20028;-68
2023/12/24 03:19:39;;;;;;;1.25;0.30;;;7.40;99.90;;;;;;5083302;28;20033;-68
2023/12/24 03:22:04;;;;;;;0.70;0.40;;;7.40;99.90;;;;;;5083763;28;20024;-68
2023/12/24 03:24:30;;;;;;;1.67;0.35;;;7.40;99.90;;;;;;5076151;28;20049;-69
2023/12/24 03:26:55;;;;;;;2.58;0.50;;;7.40;99.90;;;;;;5089966;28;20032;-69
2023/12/24 03:29:22;;;;;;;0.82;0.40;;;7.40;99.90;;;;;;5071534;28;20174;-71
2023/12/24 03:31:47;;;;;;;0.63;0.40;;;7.40;99.90;;;;;;5085343;28;20043;-69
2023/12/24 03:34:14;;;;;;;0.95;0.30;;;7.40;99.90;;;;;;5066656;28;20032;-69
2023/12/24 03:36:41;;;;;;;1.58;0.40;;;7.40;99.90;;;;;;5070749;28;20052;-69
2023/12/24 03:39:07;;;;;;;2.00;0.50;;;7.40;99.90;;;;;;5071324;28;20035;-69
2023/12/24 03:41:33;;;;;;;3.42;0.45;;;7.40;99.90;;;;;;5083726;28;20039;-75
2023/12/24 03:43:59;;;;;;;1.40;0.40;;;7.40;99.90;;;;;;5087689;28;20035;-68
2023/12/24 03:46:24;;;;;;;1.35;0.30;;;7.40;99.90;;;;;;5091286;28;20104;-69
2023/12/24 03:48:50;;;;;;;2.25;0.50;;;7.50;99.90;;;;;;5075183;28;20375;-69
2023/12/24 03:51:18;;;;;;;0.75;0.30;;;7.40;99.90;;;;;;5080088;28;20054;-68
2023/12/24 03:53:44;;;;;;;0.88;0.40;;;7.40;99.90;;;;;;5071301;28;20438;-68
2023/12/24 03:56:10;;;;;;;1.10;0.40;;;7.40;99.90;;;;;;5080761;28;20040;-70
2023/12/24 03:58:36;;;;;;;2.70;0.38;;;7.50;99.90;;;;;;5084515;28;20036;-73
2023/12/24 04:01:08;;;;;;;1.80;0.40;;;7.40;99.90;;;;;;5089863;28;20056;-69
2023/12/24 04:03:34;;;;;;;2.97;0.45;;;7.40;99.90;;;;;;5089073;28;20094;-71
2023/12/24 04:06:00;;;;;;;0.73;0.40;;;7.40;99.90;;;;;;5087786;28;20032;-70
2023/12/24 04:08:29;;;;;;;4.25;0.40;;;7.40;99.90;;;;;;5064958;28;20040;-71
2023/12/24 04:10:54;;;;;;;1.02;0.50;;;7.40;99.90;;;;;;5076674;28;20028;-67
2023/12/24 04:13:20;;;;;;;0.88;0.47;;;7.40;99.90;;;;;;5075001;28;20043;-68
2023/12/24 04:15:45;;;;;;;2.03;0.40;;;7.40;99.90;;;;;;5069716;28;20059;-70
2023/12/24 04:18:11;;;;;;;1.10;0.40;;;7.30;99.90;;;;;;5065930;28;20058;-70
2023/12/24 04:20:38;;;;;;;2.30;0.40;;;7.40;99.90;;;;;;5090180;28;20020;-73
2023/12/24 04:23:04;;;;;;;0.70;0.32;;;7.40;99.90;;;;;;5090292;28;20032;-67
2023/12/24 04:25:29;;;;;;;1.42;0.55;;;7.30;99.90;;;;;;5090617;28;20024;-69
2023/12/24 04:27:55;;;;;;;1.50;0.50;;;7.30;99.90;;;;;;5085468;28;20534;-69
2023/12/24 04:30:21;;;;;;;0.90;0.47;;;7.40;99.90;;;;;;5070158;28;20087;-69
2023/12/24 04:32:46;;;;;;;1.00;0.50;;;7.30;99.90;;;;;;5069351;28;20055;-72
2023/12/24 04:35:12;;;;;;;1.25;0.40;;;7.30;99.90;;;;;;5069811;28;20024;-69
2023/12/24 04:37:37;;;;;;;1.05;0.47;;;7.40;99.90;;;;;;5071049;28;20032;-74
2023/12/24 04:40:04;;;;;;;0.88;0.30;;;7.30;99.90;;;;;;5083070;28;20032;-70
2023/12/24 04:42:30;;;;;;;2.75;0.38;;;7.40;99.90;;;;;;5074435;28;20025;-69
2023/12/24 04:44:55;;;;;;;1.33;0.50;;;7.40;99.90;;;;;;5061291;28;20254;-69
2023/12/24 04:47:21;;;;;;;1.58;0.40;;;7.40;99.90;;;;;;5071266;28;20504;-69
2023/12/24 04:49:47;;;;;;;2.55;0.50;;;7.40;99.90;;;;;;5088679;28;20131;-69
2023/12/24 04:52:12;;;;;;;1.17;0.50;;;7.40;99.90;;;;;;5071941;28;20032;-67
2023/12/24 04:54:38;;;;;;;2.60;0.80;;;7.40;99.90;;;;;;5070883;28;20032;-75
2023/12/24 04:57:04;;;;;;;1.48;0.60;;;7.40;99.90;;;;;;5081062;28;20028;-68
2023/12/24 04:59:30;;;;;;;1.15;0.55;;;7.40;99.90;;;;;;5086202;28;20047;-69
2023/12/24 05:01:56;;;;;;;2.03;0.70;;;7.40;99.90;;;;;;5088772;28;20500;-69
2023/12/24 05:04:21;;;;;;;1.55;0.73;;;7.40;99.90;;;;;;5087367;28;20027;-70
2023/12/24 05:06:47;;;;;;;1.88;0.60;;;7.40;99.90;;;;;;5075267;28;20020;-70
2023/12/24 05:09:13;;;;;;;1.40;0.70;;;7.40;99.90;;;;;;5071453;28;20032;-69
2023/12/24 05:11:39;;;;;;;3.30;0.50;;;7.40;99.90;;;;;;5088653;28;20347;-73
2023/12/24 05:14:05;;;;;;;1.02;0.50;;;7.40;99.90;;;;;;5057569;28;20020;-70
2023/12/24 05:16:31;;;;;;;3.22;0.80;;;7.40;99.90;;;;;;5073212;28;20624;-69
2023/12/24 05:18:56;;;;;;;3.13;0.90;;;7.40;99.90;;;;;;5088681;28;20039;-70
2023/12/24 05:21:22;;;;;;;1.23;0.50;;;7.40;99.90;;;;;;5089770;28;20766;-68
2023/12/24 05:23:47;;;;;;;1.27;0.60;;;7.40;99.90;;;;;;5070101;28;20013;-69
2023/12/24 05:26:13;;;;;;;1.38;0.60;;;7.50;99.90;;;;;;5065939;28;20051;-68
2023/12/24 05:28:39;;;;;;;0.85;0.40;;;7.50;99.90;;;;;;5073544;28;20067;-68
2023/12/24 05:31:04;;;;;;;1.13;0.82;;;7.40;99.90;;;;;;5070140;28;20082;-68
2023/12/24 05:33:30;;;;;;;1.25;0.70;;;7.40;99.90;;;;;;5082058;28;20728;-69
2023/12/24 05:35:55;;;;;;;1.05;0.57;;;7.40;99.90;;;;;;5088089;28;20039;-71
2023/12/24 05:38:21;;;;;;;1.30;0.68;;;7.50;99.90;;;;;;5089243;28;20032;-68
2023/12/24 05:40:47;;;;;;;1.30;0.65;;;7.50;99.90;;;;;;5082027;28;20036;-69
2023/12/24 05:43:12;;;;;;;1.88;0.68;;;7.40;99.90;;;;;;5068696;28;20427;-69
2023/12/24 05:45:38;;;;;;;1.48;0.70;;;7.30;99.90;;;;;;5069037;28;20438;-69
2023/12/24 05:48:04;;;;;;;0.95;0.50;;;7.40;99.90;;;;;;5068020;28;20522;-69
2023/12/24 05:50:30;;;;;;;1.27;0.70;;;7.40;99.90;;;;;;5069187;28;20048;-69
2023/12/24 05:52:55;;;;;;;1.63;0.60;;;7.50;99.90;;;;;;5062082;28;20379;-70
2023/12/24 05:55:21;;;;;;;1.85;0.80;;;7.50;99.90;;;;;;5050681;28;20059;-68
2023/12/24 05:57:47;;;;;;;1.75;0.60;;;7.40;99.90;;;;;;5049763;28;20066;-70
2023/12/24 06:00:13;;;;;;;1.20;0.60;;;7.50;99.90;;;;;;5068767;28;20102;-69
2023/12/24 06:02:39;;;;;;;3.15;0.45;;;7.50;99.90;;;;;;5074429;28;20107;-68
2023/12/24 06:05:05;;;;;;;0.85;0.35;;;7.40;99.90;;;;;;5069234;28;20099;-68
2023/12/24 06:07:31;;;;;;;2.78;0.57;;;7.50;99.90;;;;;;5088485;28;20031;-72
2023/12/24 06:09:56;;;;;;;2.00;0.75;;;7.50;99.90;;;;;;5077515;28;20039;-70
2023/12/24 06:12:22;;;;;;;4.25;0.68;;;7.50;99.90;;;;;;5070516;28;20028;-69
2023/12/24 06:14:47;;;;;;;4.03;0.80;;;7.50;99.90;;;;;;5088000;28;20031;-69
2023/12/24 06:17:13;;;;;;;1.23;0.55;;;7.50;99.90;;;;;;5088838;28;20462;-68
2023/12/24 06:19:38;;;;;;;1.25;0.50;;;7.50;99.90;;;;;;5081013;28;20025;-67
2023/12/24 06:22:05;;;;;;;1.48;0.60;;;7.50;99.90;;;;;;5068178;28;20345;-68
2023/12/24 06:24:31;;;;;;;0.68;0.40;;;7.50;99.90;;;;;;5076311;28;20033;-69
2023/12/24 06:26:56;;;;;;;1.00;0.55;;;7.60;99.90;;;;;;5055207;28;20119;-69
2023/12/24 06:29:22;;;;;;;2.13;0.50;;;7.50;99.90;;;;;;5065055;28;20174;-69
2023/12/24 06:31:48;;;;;;;1.55;0.47;;;7.50;99.90;;;;;;5080358;28;20102;-70
2023/12/24 06:34:14;;;;;;;0.90;0.55;;;7.50;99.90;;;;;;5078028;28;20016;-68
2023/12/24 06:36:40;;;;;;;0.55;0.32;;;7.50;99.90;;;;;;5080010;28;20032;-69
2023/12/24 06:39:05;;;;;;;1.25;0.50;;;7.60;99.90;;;;;;5083280;28;20205;-69
2023/12/24 06:41:31;;;;;;;2.40;0.85;;;7.60;99.90;;;;;;5074163;28;20491;-69
2023/12/24 06:43:57;;;;;;;3.42;0.63;;;7.60;99.90;;;;;;5075153;28;20459;-69
2023/12/24 06:46:24;;;;;;;0.98;0.40;;;7.50;99.90;;;;;;5053932;28;20028;-69
2023/12/24 06:48:50;;;;;;;2.85;0.40;;;7.60;99.90;;;;;;5053227;28;20024;-69
2023/12/24 06:51:16;;;;;;;1.17;0.22;;;7.60;99.90;;;;;;5083196;28;20039;-70
2023/12/24 06:53:41;;;;;;;1.73;0.30;;;7.70;99.90;;;;;;5090511;28;20031;-70
2023/12/24 06:56:07;;;;;;;1.75;0.40;;;7.70;99.90;;;;;;5081637;28;20655;-69
2023/12/24 06:58:33;;;;;;;0.95;0.47;;;7.70;99.90;;;;;;5091655;28;20025;-70
2023/12/24 07:00:58;;;;;;;1.67;0.60;;;7.70;99.90;;;;;;5089582;28;20052;-69
2023/12/24 07:03:24;;;;;;;1.02;0.45;;;7.70;99.90;;;;;;5060666;28;20055;-67
2023/12/24 07:05:49;;;;;;;1.55;0.60;;;7.70;99.90;;;;;;5065659;28;20033;-73
2023/12/24 07:08:15;;;;;;;0.95;0.47;;;7.70;99.90;;;;;;5070171;28;20035;-70
2023/12/24 07:10:41;;;;;;;1.05;0.47;;;7.70;99.90;;;;;;5091401;28;20035;-69
2023/12/24 07:13:07;;;;;;;1.55;0.50;;;7.70;99.90;;;;;;5083270;28;20604;-71
2023/12/24 07:15:37;;;;;;;1.02;0.25;;;7.70;99.90;;;;;;5091137;28;20716;-69
2023/12/24 07:18:03;;;;;;;1.27;0.40;;;7.70;99.90;;;;;;5084561;28;20082;-69
2023/12/24 07:20:29;;;;;;;0.82;0.40;;;7.70;99.90;;;;;;5078924;28;20021;-68
2023/12/24 07:22:54;;;;;;;0.90;0.43;;;7.80;99.90;;;;;;5081658;28;20398;-69
2023/12/24 07:25:20;;;;;;;1.00;0.40;;;7.80;99.90;;;;;;5083427;28;20028;-69
2023/12/24 07:27:45;;;;;;;1.15;0.50;;;7.70;99.90;;;;;;5059273;28;20450;-74
2023/12/24 07:30:12;;;;;;;1.25;0.40;;;7.70;99.90;;;;;;5089877;28;20089;-69
2023/12/24 07:32:43;;;;;;;1.30;0.50;;;7.60;99.90;;;;;;5086444;28;20028;-70
2023/12/24 07:35:08;;;;;;;1.63;0.50;;;7.60;99.90;;;;;;5082389;28;20016;-69
2023/12/24 07:37:34;;;;;;;2.58;0.60;;;7.60;99.90;;;;;;5087109;28;20371;-68
2023/12/24 07:40:00;;;;;;;1.70;0.50;;;7.50;99.90;;;;;;5077819;28;20078;-69
2023/12/24 07:42:25;;;;;;;1.88;0.63;;;7.40;99.90;;;;;;5082719;28;20060;-69
2023/12/24 07:44:51;;;;;;;1.63;0.35;;;7.50;99.90;;;;;;5065003;28;20028;-72
2023/12/24 07:47:17;;;;;;;1.27;0.60;;;7.50;99.90;;;;;;5087166;28;20031;-71
2023/12/24 07:49:42;;;;;;;0.93;0.57;;;7.40;99.90;;;;;;5083669;28;20064;-69
2023/12/24 07:52:08;;;;;;;0.75;0.30;;;7.40;99.90;;;;;;5076970;28;20113;-69
2023/12/24 07:54:34;;;;;;;2.20;0.55;;;7.40;99.90;;;;;;5079983;28;20052;-69
2023/12/24 07:56:59;;;;;;;2.05;0.80;;;7.30;99.90;;;;;;5072258;28;20032;-69
2023/12/24 07:59:25;;;;;;;1.38;0.70;;;7.30;99.90;;;;;;5073896;28;20090;-70
2023/12/24 08:01:51;;;;;;;1.35;0.55;;;7.30;99.90;;;;;;5069802;28;20143;-73
2023/12/24 08:04:16;;;;;;;2.63;0.80;;;7.30;99.90;;;;;;5087591;28;20024;-69
2023/12/24 08:06:42;;;;;;;4.10;0.57;;;7.30;99.90;;;;;;5082119;28;20027;-69
2023/12/24 08:09:10;;;;;;;1.33;0.60;;;7.30;99.90;;;;;;5082014;28;20662;-70
2023/12/24 08:11:36;;;;;;;0.70;0.32;;;7.30;99.90;;;;;;5076447;28;20143;-70
2023/12/24 08:14:02;;;;;;;1.33;0.70;;;7.30;99.90;;;;;;5088552;28;20473;-69
2023/12/24 08:16:31;;;;;;;3.03;0.70;;;7.20;99.90;;;;;;5086148;28;20028;-69
2023/12/24 08:18:58;;;;;;;1.80;0.90;;;7.10;99.90;;;;;;5069620;28;20116;-67
2023/12/24 08:21:23;;;;;;;1.63;0.63;;;7.10;99.90;;;;;;5089497;28;20050;-69
2023/12/24 08:23:49;;;;;;;2.17;0.47;;;7.10;99.90;;;;;;5086727;28;20024;-75
2023/12/24 08:26:15;;;;;;;1.35;0.65;;;7.10;99.90;;;;;;5068420;28;20036;-69
2023/12/24 08:28:40;;;;;;;1.75;0.70;;;7.10;99.90;;;;;;5085496;28;20063;-71
2023/12/24 08:31:07;;;;;;;1.55;0.80;;;7.20;99.90;;;;;;5081171;28;20471;-70
2023/12/24 08:33:32;;;;;;;1.17;0.70;;;7.10;99.90;;;;;;5079801;28;20020;-68
2023/12/24 08:35:58;;;;;;;2.88;0.95;;;7.10;99.90;;;;;;5080552;28;20062;-70
2023/12/24 08:38:24;;;;;;;0.70;0.52;;;7.10;99.90;;;;;;5071424;28;20378;-69
2023/12/24 08:40:49;;;;;;;1.15;0.50;;;7.10;99.90;;;;;;5087368;28;20113;-73
2023/12/24 08:43:15;;;;;;;1.05;0.55;;;7.20;99.90;;;;;;5089399;28;20039;-70
2023/12/24 08:45:41;;;;;;;3.05;0.65;;;7.20;99.90;;;;;;5078378;28;20344;-69
2023/12/24 08:48:08;;;;;;;1.00;0.45;;;7.20;99.90;;;;;;5068758;28;20159;-64
2023/12/24 08:50:34;;;;;;;1.80;0.80;;;7.30;99.90;;;;;;5078420;28;20110;-62
2023/12/24 08:53:00;;;;;;;1.50;0.57;;;7.40;99.90;;;;;;5068564;28;20090;-63
2023/12/24 08:55:25;;;;;;;1.65;0.57;;;7.40;99.90;;;;;;5088428;28;20035;-62
2023/12/24 08:57:51;;;;;;;0.85;0.38;;;7.40;99.90;;;;;;5070202;28;20032;-66
2023/12/24 09:00:17;;;;;;;1.25;0.60;;;7.50;99.90;;;;;;5087492;28;20052;-63
2023/12/24 09:02:43;;;;;;;1.17;0.50;;;7.50;99.90;;;;;;5085642;28;20024;-63
2023/12/24 09:05:09;;;;;;;1.17;0.55;;;7.50;99.90;;;;;;5063209;28;20032;-62
2023/12/24 09:07:35;;;;;;;1.33;0.40;;;7.50;99.90;;;;;;5075924;28;20275;-62
2023/12/24 09:10:01;;;;;;;1.55;0.40;;;7.50;99.90;;;;;;5091112;28;20128;-63
2023/12/24 09:12:27;;;;;;;1.05;0.45;;;7.40;99.90;;;;;;5084172;28;20109;-63
2023/12/24 09:14:53;;;;;;;0.45;0.30;;;7.50;99.90;;;;;;5085254;28;20034;-67
2023/12/24 09:17:19;;;;;;;0.82;0.30;;;7.50;99.90;;;;;;5078864;28;20025;-63
2023/12/24 09:19:44;;;;;;;2.80;0.40;;;7.50;99.90;;;;;;5087359;28;20050;-62
2023/12/24 09:22:10;;;;;;;0.95;0.30;;;7.50;99.90;;;;;;5087080;28;20044;-63
2023/12/24 09:24:35;;;;;;;0.68;0.43;;;7.50;99.90;;;;;;5072768;28;20040;-63
2023/12/24 09:27:01;;;;;;;1.05;0.32;;;7.50;99.90;;;;;;5077775;28;20444;-63
2023/12/24 09:29:27;;;;;;;1.23;0.40;;;7.50;99.90;;;;;;5085005;28;20070;-63
2023/12/24 09:31:53;;;;;;;0.57;0.20;;;7.50;99.90;;;;;;5087683;28;20107;-66
2023/12/24 09:34:18;;;;;;;0.20;0.10;;;7.50;99.90;;;;;;5068629;28;20028;-61
2023/12/24 09:36:44;;;;;;;1.98;0.30;;;7.50;99.90;;;;;;5085321;28;20516;-62
2023/12/24 09:39:10;;;;;;;0.80;0.40;;;7.60;99.90;;;;;;5072043;28;20481;-62
2023/12/24 09:41:39;;;;;;;1.23;0.30;;;7.60;99.90;;;;;;5075789;28;20762;-63
2023/12/24 09:44:07;;;;;;;0.77;0.30;;;7.50;99.90;;;;;;5065495;28;20116;-62
2023/12/24 09:46:32;;;;;;;1.65;0.45;;;7.50;99.90;;;;;;5083975;28;20024;-66
2023/12/24 09:48:58;;;;;;;0.80;0.30;;;7.50;99.90;;;;;;5079985;28;20032;-67
2023/12/24 09:51:25;;;;;;;2.25;0.60;;;7.60;99.90;;;;;;5087990;28;20099;-65
2023/12/24 09:53:52;;;;;;;0.90;0.40;;;7.50;99.90;;;;;;5086758;28;20060;-68
2023/12/24 09:56:18;;;;;;;1.48;0.55;;;7.50;99.90;;;;;;5084440;28;20024;-68
2023/12/24 09:58:45;;;;;;;1.73;0.30;;;7.60;99.90;;;;;;5086212;28;20036;-67
2023/12/24 10:01:11;;;;;;;0.70;0.35;;;7.70;99.90;;;;;;5101855;28;20062;-67
2023/12/24 10:03:37;;;;;;;2.00;0.30;;;7.70;99.90;;;;;;5087894;28;20110;-66
2023/12/24 10:06:04;;;;;;;0.80;0.47;;;7.70;99.90;;;;;;5089596;28;20039;-65
2023/12/24 10:08:33;;;;;;;0.73;0.40;;;7.70;99.90;;;;;;5062205;28;20098;-66
2023/12/24 10:11:17;;;;;;;1.33;0.30;;;7.70;99.90;;;;;;5069840;28;20039;-67
2023/12/24 10:13:46;;;;;;;0.75;0.32;;;7.60;99.90;;;;;;5076902;28;20694;-65
2023/12/24 10:16:12;;;;;;;1.00;0.50;;;7.60;99.90;;;;;;5097888;28;20378;-66
2023/12/24 10:18:48;;;;;;;0.50;0.30;;;7.70;99.90;;;;;;5068083;28;20282;-65
2023/12/24 10:21:13;;;;;;;2.58;0.35;;;7.70;99.90;;;;;;5072639;28;20445;-67
2023/12/24 10:23:40;;;;;;;1.40;0.40;;;7.70;99.90;;;;;;5081817;28;20024;-66
2023/12/24 10:26:08;;;;;;;1.05;0.60;;;7.70;99.90;;;;;;5063461;28;20039;-67
2023/12/24 10:28:44;;;;;;;0.95;0.40;;;7.60;99.90;;;;;;5078483;28;20059;-65
2023/12/24 10:31:10;;;;;;;1.10;0.40;;;7.70;99.90;;;;;;5083276;28;20040;-67
2023/12/24 10:33:37;;;;;;;1.00;0.40;;;7.70;99.90;;;;;;5085286;28;20114;-67
2023/12/24 10:36:03;;;;;;;2.33;0.40;;;7.60;99.90;;;;;;5085294;28;20444;-67
2023/12/24 10:38:29;;;;;;;2.92;0.50;;;7.60;99.90;;;;;;5090597;28;20027;-67
2023/12/24 10:40:55;;;;;;;1.30;0.50;;;7.70;99.90;;;;;;5087748;28;20042;-67
2023/12/24 10:43:20;;;;;;;0.90;0.40;;;7.60;99.90;;;;;;5094451;28;20036;-68
2023/12/24 10:45:46;;;;;;;1.25;0.57;;;7.60;99.90;;;;;;5069412;28;20082;-68
2023/12/24 10:48:13;;;;;;;1.38;0.50;;;7.60;99.90;;;;;;5076132;28;20032;-67
2023/12/24 10:50:39;;;;;;;1.52;0.60;;;7.60;99.90;;;;;;5098622;28;20039;-66
2023/12/24 10:53:04;;;;;;;1.88;0.68;;;7.60;99.90;;;;;;5093354;28;20111;-67
2023/12/24 10:55:32;;;;;;;1.00;0.60;;;7.60;99.90;;;;;;5069293;28;20044;-67
2023/12/24 10:58:25;;;;;;;1.13;0.60;;;7.60;99.90;;;;;;5085492;28;20020;-73
2023/12/24 11:00:50;;;;;;;2.58;0.70;;;7.60;99.90;;;;;;5087209;28;20056;-69
2023/12/24 11:03:42;;;;;;;1.45;0.63;;;7.60;99.90;;;;;;5100696;28;20043;-70
2023/12/24 11:06:09;;;;;;;0.98;0.52;;;7.60;99.90;;;;;;5089086;28;20029;-69
2023/12/24 11:08:34;;;;;;;2.83;0.77;;;7.60;99.90;;;;;;5088157;28;20020;-67
2023/12/24 11:11:06;;;;;;;3.53;1.02;;;7.70;99.90;;;;;;5086214;28;20047;-73
2023/12/24 11:13:32;;;;;;;1.55;1.00;;;7.70;99.90;;;;;;5069388;28;20104;-68
2023/12/24 11:16:06;;;;;;;1.33;0.60;;;7.80;99.90;;;;;;5091434;28;20032;-70
2023/12/24 11:18:45;;;;;;;1.50;0.70;;;7.80;99.90;;;;;;5070674;28;20422;-66
2023/12/24 11:21:16;;;;;;;1.30;0.65;;;7.80;99.90;;;;;;5062544;28;20660;-68
2023/12/24 11:24:02;;;;;;;1.10;0.60;;;7.80;99.90;;;;;;5069187;28;20399;-68
2023/12/24 11:26:32;;;;;;;1.88;0.80;;;7.80;99.90;;;;;;5093198;28;20024;-67
2023/12/24 11:28:59;;;;;;;1.42;0.65;;;7.80;99.90;;;;;;5088027;28;20032;-68
2023/12/24 11:31:26;;;;;;;1.38;0.77;;;7.80;99.90;;;;;;5085293;28;20046;-67
2023/12/24 11:33:54;;;;;;;2.17;0.85;;;7.80;99.90;;;;;;5097600;28;20036;-68
2023/12/24 11:36:20;;;;;;;2.50;0.93;;;7.80;99.90;;;;;;5101099;28;20034;-67
2023/12/24 11:38:48;;;;;;;1.17;0.60;;;7.80;99.90;;;;;;5083902;28;20124;-67
2023/12/24 11:41:21;;;;;;;2.13;0.90;;;7.80;99.90;;;;;;5088578;28;20032;-67
2023/12/24 11:43:52;;;;;;;2.22;0.90;;;7.80;99.90;;;;;;5089960;28;20089;-66
2023/12/24 11:46:18;;;;;;;1.95;0.93;;;7.90;99.90;;;;;;5087140;28;20105;-68
2023/12/24 11:48:44;;;;;;;2.58;0.80;;;7.90;99.90;;;;;;5076244;28;20029;-67
2023/12/24 11:51:11;;;;;;;1.92;0.90;;;7.90;99.90;;;;;;5083840;28;20101;-70
2023/12/24 11:53:38;;;;;;;1.67;1.00;;;7.90;99.90;;;;;;5089422;28;20557;-70
2023/12/24 11:56:04;;;;;;;2.80;0.85;;;7.90;99.90;;;;;;5085786;28;20086;-73
2023/12/24 11:58:29;;;;;;;1.42;0.68;;;7.90;99.90;;;;;;5087166;28;20063;-69
2023/12/24 12:00:58;;;;;;;2.00;0.80;;;7.90;99.90;;;;;;5059200;28;20103;-70
2023/12/24 12:03:24;;;;;;;1.60;0.68;;;7.90;99.90;;;;;;5088746;28;20027;-69
2023/12/24 12:05:50;;;;;;;1.30;0.70;;;8.00;99.90;;;;;;5091249;28;20044;-69
2023/12/24 12:08:15;;;;;;;1.75;0.90;;;8.10;99.90;;;;;;5070345;28;20474;-70
2023/12/24 12:10:41;;;;;;;1.98;1.00;;;8.10;99.90;;;;;;5072284;28;20069;-70
2023/12/24 12:13:07;;;;;;;1.35;0.60;;;8.10;99.90;;;;;;5061336;28;20115;-69
2023/12/24 12:15:32;;;;;;;1.38;0.75;;;8.10;99.90;;;;;;5064043;28;20134;-68
2023/12/24 12:17:58;;;;;;;1.70;0.70;;;8.10;99.90;;;;;;5093592;28;20043;-69
2023/12/24 12:20:25;;;;;;;3.17;0.60;;;8.10;99.90;;;;;;5086072;28;20648;-69
2023/12/24 12:22:51;;;;;;;1.80;0.60;;;8.20;99.90;;;;;;5086804;28;20028;-70
2023/12/24 12:25:17;;;;;;;1.48;0.43;;;8.20;99.90;;;;;;5087574;28;20035;-70
2023/12/24 12:27:42;;;;;;;1.77;0.63;;;8.20;99.90;;;;;;5086312;28;20066;-69
2023/12/24 12:30:08;;;;;;;1.83;0.63;;;8.30;99.90;;;;;;5092042;28;20038;-70
2023/12/24 12:32:37;;;;;;;1.70;0.40;;;8.30;99.90;;;;;;5066170;28;20053;-69
2023/12/24 12:35:03;;;;;;;0.95;0.40;;;8.40;99.90;;;;;;5051727;28;20521;-74
2023/12/24 12:37:29;;;;;;;0.77;0.40;;;8.40;99.90;;;;;;5069189;28;20528;-68
2023/12/24 12:39:54;;;;;;;1.25;0.40;;;8.40;99.90;;;;;;5088788;28;20091;-68
2023/12/24 12:42:20;;;;;;;0.75;0.30;;;8.50;99.90;;;;;;5100437;28;20466;-69
2023/12/24 12:44:46;;;;;;;1.52;0.50;;;8.60;99.90;;;;;;5080799;28;20109;-69
2023/12/24 12:47:15;;;;;;;1.38;0.40;;;8.50;99.90;;;;;;5086283;28;20028;-69
2023/12/24 12:49:43;;;;;;;0.88;0.40;;;8.50;99.90;;;;;;5069495;28;20311;-69
2023/12/24 12:52:09;;;;;;;1.17;0.32;;;8.60;99.90;;;;;;5070093;28;20090;-68
2023/12/24 12:54:35;;;;;;;0.80;0.30;;;8.60;99.90;;;;;;5107517;28;20028;-68